createdAt,value
2023-04-18T00:00:42.295Z,40.08
2023-04-18T00:01:44.526Z,39.54
2023-04-18T00:02:47.941Z,40.05
2023-04-18T00:03:50.144Z,40.02
2023-04-18T00:04:54.397Z,39.88
2023-04-18T00:05:56.433Z,40.20
2023-04-18T00:06:59.081Z,40.06
2023-04-18T00:08:00.739Z,39.97
2023-04-18T00:09:05.052Z,40.15
2023-04-18T00:10:07.904Z,40.01
2023-04-18T00:11:10.622Z,40.43
2023-04-18T00:12:12.440Z,39.99
2023-04-18T00:13:18.280Z,40.15
2023-04-18T00:14:20.701Z,39.98
2023-04-18T00:15:23.999Z,40.33
2023-04-18T00:16:25.744Z,40.59
2023-04-18T00:17:28.689Z,40.17
2023-04-18T00:18:30.378Z,40.20
2023-04-18T00:19:34.271Z,40.14
2023-04-18T00:20:38.899Z,40.21
2023-04-18T00:21:44.751Z,40.54
2023-04-18T00:22:46.766Z,40.40
2023-04-18T00:23:49.536Z,40.42
2023-04-18T00:24:52.638Z,40.36
2023-04-18T00:25:55.300Z,40.43
2023-04-18T00:26:57.189Z,40.79
2023-04-18T00:27:59.894Z,40.38
2023-04-18T00:29:02.610Z,40.42
2023-04-18T00:30:05.914Z,40.20
2023-04-18T00:31:07.569Z,40.15
2023-04-18T00:32:10.274Z,40.06
2023-04-18T00:33:11.966Z,40.32
2023-04-18T00:34:14.879Z,40.21
2023-04-18T00:35:16.810Z,40.07
2023-04-18T00:36:19.451Z,40.32
2023-04-18T00:37:21.143Z,40.25
2023-04-18T00:38:23.791Z,40.16
2023-04-18T00:39:25.601Z,40.33
2023-04-18T00:40:29.806Z,40.30
2023-04-18T00:41:31.537Z,40.23
2023-04-18T00:42:34.250Z,40.53
2023-04-18T00:43:37.090Z,40.48
2023-04-18T00:44:39.765Z,40.55
2023-04-18T00:45:41.496Z,40.45
2023-04-18T00:46:44.423Z,40.33
2023-04-18T00:47:46.193Z,40.35
2023-04-18T00:48:49.166Z,40.54
2023-04-18T00:49:50.853Z,40.50
2023-04-18T00:50:54.252Z,40.67
2023-04-18T00:51:56.004Z,40.23
2023-04-18T00:52:59.235Z,40.73
2023-04-18T00:54:01.050Z,40.53
2023-04-18T00:55:05.282Z,40.68
2023-04-18T00:56:08.511Z,40.31
2023-04-18T00:57:11.417Z,40.39
2023-04-18T00:58:13.175Z,40.66
2023-04-18T00:59:15.869Z,40.75
2023-04-18T01:00:18.010Z,40.58
2023-04-18T01:01:20.692Z,40.51
2023-04-18T01:02:22.939Z,40.50
2023-04-18T01:03:26.578Z,40.37
2023-04-18T01:04:28.532Z,40.78
2023-04-18T01:05:31.352Z,40.96
2023-04-18T01:06:33.105Z,40.75
2023-04-18T01:07:37.340Z,40.58
2023-04-18T01:08:39.157Z,40.54
2023-04-18T01:09:42.196Z,40.58
2023-04-18T01:10:44.002Z,40.94
2023-04-18T01:11:48.156Z,40.81
2023-04-18T01:12:49.867Z,40.79
2023-04-18T01:14:02.072Z,40.83
2023-04-18T01:15:04.378Z,40.84
2023-04-18T01:16:07.532Z,41.15
2023-04-18T01:17:10.718Z,41.16
2023-04-18T01:18:16.748Z,41.27
2023-04-18T01:19:18.517Z,41.00
2023-04-18T01:20:22.705Z,41.16
2023-04-18T01:21:24.583Z,40.92
2023-04-18T01:22:27.341Z,41.37
2023-04-18T01:23:29.361Z,41.16
2023-04-18T01:24:33.473Z,41.33
2023-04-18T01:25:35.128Z,40.85
2023-04-18T01:26:37.793Z,41.19
2023-04-18T01:27:39.458Z,41.36
2023-04-18T01:28:42.146Z,41.48
2023-04-18T01:29:43.812Z,41.52
2023-04-18T01:30:46.548Z,41.22
2023-04-18T01:31:48.302Z,41.44
2023-04-18T01:32:51.095Z,41.60
2023-04-18T01:33:52.897Z,41.52
2023-04-18T01:34:55.568Z,41.54
2023-04-18T01:35:57.273Z,41.82
2023-04-18T01:37:00.193Z,41.71
2023-04-18T01:38:02.111Z,41.88
2023-04-18T01:39:04.929Z,41.66
2023-04-18T01:40:09.537Z,41.84
2023-04-18T01:41:12.306Z,41.87
2023-04-18T01:42:14.030Z,41.84
2023-04-18T01:43:16.764Z,41.94
2023-04-18T01:44:18.521Z,42.02
2023-04-18T01:45:22.304Z,42.29
2023-04-18T01:46:24.052Z,42.00
2023-04-18T01:47:26.707Z,42.18
2023-04-18T01:48:28.463Z,42.03
2023-04-18T01:49:31.215Z,42.32
2023-04-18T01:50:32.949Z,42.31
2023-04-18T01:51:35.646Z,42.50
2023-04-18T01:52:37.289Z,42.52
2023-04-18T01:53:39.933Z,42.51
2023-04-18T01:54:41.679Z,42.58
2023-04-18T01:55:45.739Z,42.13
2023-04-18T01:56:47.462Z,42.39
2023-04-18T01:57:50.840Z,42.69
2023-04-18T01:58:52.512Z,42.73
2023-04-18T01:59:55.260Z,42.68
2023-04-18T02:00:57.676Z,42.96
2023-04-18T02:02:00.701Z,42.86
2023-04-18T02:03:02.604Z,42.85
2023-04-18T02:04:05.404Z,42.96
2023-04-18T02:05:08.061Z,43.10
2023-04-18T02:06:10.694Z,43.20
2023-04-18T02:07:12.412Z,43.24
2023-04-18T02:08:15.490Z,42.98
2023-04-18T02:09:17.226Z,43.02
2023-04-18T02:10:21.115Z,43.12
2023-04-18T02:11:24.115Z,43.04
2023-04-18T02:12:26.812Z,43.27
2023-04-18T02:13:28.825Z,43.17
2023-04-18T02:14:33.084Z,43.24
2023-04-18T02:15:34.839Z,43.38
2023-04-18T02:16:38.836Z,43.54
2023-04-18T02:17:41.618Z,43.16
2023-04-18T02:18:44.783Z,43.35
2023-04-18T02:19:46.616Z,43.38
2023-04-18T02:20:49.609Z,43.34
2023-04-18T02:21:51.390Z,43.44
2023-04-18T02:22:54.090Z,43.76
2023-04-18T02:23:55.807Z,43.45
2023-04-18T02:24:58.486Z,43.68
2023-04-18T02:26:00.287Z,43.57
2023-04-18T02:27:04.489Z,43.60
2023-04-18T02:28:06.189Z,43.64
2023-04-18T02:29:08.857Z,43.71
2023-04-18T02:30:11.130Z,43.66
2023-04-18T02:31:15.373Z,43.98
2023-04-18T02:32:17.056Z,44.03
2023-04-18T02:33:19.800Z,43.85
2023-04-18T02:34:21.487Z,43.97
2023-04-18T02:35:24.723Z,43.73
2023-04-18T02:36:28.121Z,44.21
2023-04-18T02:37:30.801Z,44.14
2023-04-18T02:38:32.514Z,43.69
2023-04-18T02:39:35.225Z,44.17
2023-04-18T02:40:36.945Z,44.17
2023-04-18T02:41:39.803Z,43.98
2023-04-18T02:42:42.932Z,44.19
2023-04-18T02:43:45.684Z,43.80
2023-04-18T02:44:47.407Z,43.76
2023-04-18T02:45:50.122Z,44.27
2023-04-18T02:46:51.850Z,43.95
2023-04-18T02:47:56.526Z,43.90
2023-04-18T02:48:58.648Z,44.45
2023-04-18T02:50:01.466Z,44.38
2023-04-18T02:51:03.541Z,44.26
2023-04-18T02:52:06.616Z,44.07
2023-04-18T02:53:08.355Z,44.50
2023-04-18T02:54:11.178Z,44.19
2023-04-18T02:55:13.008Z,44.73
2023-04-18T02:56:17.846Z,44.23
2023-04-18T02:57:19.566Z,44.29
2023-04-18T02:58:23.981Z,44.72
2023-04-18T02:59:25.656Z,44.36
2023-04-18T03:00:28.431Z,44.73
2023-04-18T03:01:30.307Z,44.73
2023-04-18T03:02:33.082Z,44.70
2023-04-18T03:03:34.972Z,44.35
2023-04-18T03:04:37.799Z,44.88
2023-04-18T03:05:39.874Z,44.86
2023-04-18T03:06:42.708Z,44.20
2023-04-18T03:07:44.490Z,44.31
2023-04-18T03:08:47.184Z,45.13
2023-04-18T03:09:48.859Z,44.85
2023-04-18T03:10:51.538Z,44.88
2023-04-18T03:11:53.265Z,44.54
2023-04-18T03:12:55.930Z,44.93
2023-04-18T03:13:58.989Z,44.91
2023-04-18T03:15:01.678Z,45.45
2023-04-18T03:16:03.678Z,45.05
2023-04-18T03:17:06.523Z,45.69
2023-04-18T03:18:08.259Z,45.68
2023-04-18T03:19:10.989Z,45.46
2023-04-18T03:20:12.863Z,45.56
2023-04-18T03:21:15.592Z,45.93
2023-04-18T03:22:17.718Z,45.56
2023-04-18T03:23:20.361Z,45.75
2023-04-18T03:24:22.048Z,45.98
2023-04-18T03:25:24.751Z,45.53
2023-04-18T03:26:26.766Z,45.57
2023-04-18T03:27:29.401Z,45.60
2023-04-18T03:28:31.092Z,45.90
2023-04-18T03:29:35.210Z,45.67
2023-04-18T03:30:36.897Z,45.76
2023-04-18T03:31:41.387Z,46.24
2023-04-18T03:32:43.437Z,45.92
2023-04-18T03:33:46.907Z,46.28
2023-04-18T03:34:48.941Z,46.36
2023-04-18T03:35:51.670Z,46.40
2023-04-18T03:36:55.055Z,46.56
2023-04-18T03:37:56.775Z,46.75
2023-04-18T03:38:59.443Z,46.48
2023-04-18T03:40:01.235Z,45.98
2023-04-18T03:41:04.045Z,46.24
2023-04-18T03:42:05.893Z,46.45
2023-04-18T03:43:08.547Z,46.46
2023-04-18T03:44:10.457Z,46.64
2023-04-18T03:45:14.458Z,46.22
2023-04-18T03:46:16.270Z,46.35
2023-04-18T03:47:19.062Z,47.00
2023-04-18T03:48:21.744Z,46.72
2023-04-18T03:49:23.626Z,47.11
2023-04-18T03:50:26.530Z,46.54
2023-04-18T03:51:32.857Z,46.96
2023-04-18T03:52:35.534Z,46.24
2023-04-18T03:53:37.199Z,47.08
2023-04-18T03:54:39.916Z,46.60
2023-04-18T03:55:42.031Z,46.93
2023-04-18T03:56:44.934Z,47.07
2023-04-18T03:57:46.727Z,47.10
2023-04-18T03:58:49.413Z,46.32
2023-04-18T03:59:51.192Z,46.83
2023-04-18T04:00:55.209Z,47.29
2023-04-18T04:01:57.041Z,47.05
2023-04-18T04:02:59.918Z,47.39
2023-04-18T04:04:03.008Z,46.82
2023-04-18T04:05:06.517Z,46.78
2023-04-18T04:06:08.322Z,47.24
2023-04-18T04:07:11.968Z,46.90
2023-04-18T04:08:15.294Z,47.44
2023-04-18T04:09:17.957Z,47.01
2023-04-18T04:10:19.912Z,47.15
2023-04-18T04:11:22.960Z,47.33
2023-04-18T04:12:25.160Z,47.18
2023-04-18T04:13:27.818Z,46.99
2023-04-18T04:14:29.524Z,47.34
2023-04-18T04:15:32.234Z,47.80
2023-04-18T04:16:35.490Z,47.28
2023-04-18T04:17:38.306Z,47.72
2023-04-18T04:18:40.033Z,47.81
2023-04-18T04:19:42.822Z,47.65
2023-04-18T04:20:45.909Z,47.71
2023-04-18T04:21:48.619Z,48.33
2023-04-18T04:22:50.664Z,47.95
2023-04-18T04:23:53.523Z,48.43
2023-04-18T04:24:57.789Z,48.43
2023-04-18T04:26:03.098Z,48.11
2023-04-18T04:27:05.295Z,48.63
2023-04-18T04:28:08.159Z,48.09
2023-04-18T04:29:10.681Z,48.54
2023-04-18T04:30:13.720Z,48.62
2023-04-18T04:31:16.407Z,49.23
2023-04-18T04:32:21.628Z,49.44
2023-04-18T04:33:25.664Z,48.87
2023-04-18T04:34:28.403Z,48.51
2023-04-18T04:35:30.146Z,49.43
2023-04-18T04:36:33.452Z,49.24
2023-04-18T04:37:35.370Z,48.90
2023-04-18T04:38:40.479Z,49.06
2023-04-18T04:39:42.214Z,49.63
2023-04-18T04:40:44.889Z,49.87
2023-04-18T04:41:47.189Z,49.95
2023-04-18T04:42:54.024Z,49.30
2023-04-18T04:43:56.869Z,49.93
2023-04-18T04:44:58.590Z,50.28
2023-04-18T04:46:02.829Z,50.14
2023-04-18T04:47:04.889Z,49.92
2023-04-18T04:48:09.547Z,50.56
2023-04-18T04:49:11.710Z,50.69
2023-04-18T04:50:15.715Z,49.89
2023-04-18T04:51:17.466Z,50.51
2023-04-18T04:52:20.183Z,50.86
2023-04-18T04:53:21.967Z,50.51
2023-04-18T04:54:24.766Z,50.34
2023-04-18T04:55:26.734Z,51.14
2023-04-18T04:56:29.438Z,50.03
2023-04-18T04:57:32.106Z,51.06
2023-04-18T04:58:33.798Z,50.79
2023-04-18T04:59:36.569Z,50.40
2023-04-18T05:00:38.314Z,50.54
2023-04-18T05:01:41.068Z,51.13
2023-04-18T05:02:43.114Z,51.40
2023-04-18T05:03:47.416Z,51.62
2023-04-18T05:04:49.262Z,51.50
2023-04-18T05:05:52.002Z,51.77
2023-04-18T05:06:54.051Z,51.42
2023-04-18T05:07:56.794Z,51.37
2023-04-18T05:09:00.793Z,51.40
2023-04-18T05:10:03.778Z,51.48
2023-04-18T05:11:05.587Z,51.27
2023-04-18T05:12:08.865Z,51.74
2023-04-18T05:13:10.637Z,51.83
2023-04-18T05:14:13.514Z,51.67
2023-04-18T05:15:17.158Z,51.76
2023-04-18T05:16:19.994Z,51.44
2023-04-18T05:17:21.719Z,51.55
2023-04-18T05:18:24.432Z,51.84
2023-04-18T05:19:28.556Z,51.88
2023-04-18T05:20:30.263Z,51.94
2023-04-18T05:21:32.967Z,52.24
2023-04-18T05:22:35.093Z,51.95
2023-04-18T05:23:37.730Z,52.42
2023-04-18T05:24:39.577Z,52.03
2023-04-18T05:25:42.300Z,52.16
2023-04-18T05:26:44.115Z,52.32
2023-04-18T05:27:47.297Z,52.25
2023-04-18T05:28:49.376Z,52.38
2023-04-18T05:29:52.716Z,52.48
2023-04-18T05:31:01.326Z,52.31
2023-04-18T05:32:04.186Z,52.35
2023-04-18T05:33:06.019Z,51.85
2023-04-18T05:34:08.751Z,52.30
2023-04-18T05:35:11.840Z,51.80
2023-04-18T05:36:14.579Z,52.02
2023-04-18T05:37:17.526Z,51.98
2023-04-18T05:38:20.258Z,51.92
2023-04-18T05:39:21.999Z,51.93
2023-04-18T05:40:24.791Z,51.95
2023-04-18T05:41:26.539Z,52.13
2023-04-18T05:42:29.206Z,51.77
2023-04-18T05:43:30.861Z,52.11
2023-04-18T05:44:33.539Z,51.55
2023-04-18T05:45:36.192Z,51.69
2023-04-18T05:46:37.980Z,51.61
2023-04-18T05:47:40.793Z,51.80
2023-04-18T05:48:43.646Z,51.70
2023-04-18T05:49:46.343Z,51.33
2023-04-18T05:50:49.382Z,51.31
2023-04-18T05:51:52.908Z,51.45
2023-04-18T05:52:54.625Z,51.13
2023-04-18T05:53:57.370Z,51.33
2023-04-18T05:54:59.339Z,51.23
2023-04-18T05:56:02.068Z,51.13
2023-04-18T05:57:04.983Z,51.06
2023-04-18T05:58:06.699Z,51.03
2023-04-18T05:59:09.486Z,51.57
2023-04-18T06:00:12.819Z,50.97
2023-04-18T06:01:16.218Z,51.01
2023-04-18T06:02:19.067Z,50.87
2023-04-18T06:03:21.133Z,50.94
2023-04-18T06:04:24.312Z,50.72
2023-04-18T06:05:26.389Z,50.63
2023-04-18T06:06:31.707Z,50.56
2023-04-18T06:07:33.444Z,50.44
2023-04-18T06:08:36.129Z,50.10
2023-04-18T06:09:37.841Z,50.21
2023-04-18T06:10:40.531Z,50.02
2023-04-18T06:11:42.226Z,49.97
2023-04-18T06:12:44.906Z,49.92
2023-04-18T06:13:46.605Z,49.83
2023-04-18T06:14:50.809Z,49.77
2023-04-18T06:15:52.546Z,49.77
2023-04-18T06:16:55.344Z,49.81
2023-04-18T06:17:57.091Z,49.62
2023-04-18T06:19:01.201Z,49.64
2023-04-18T06:20:04.904Z,49.69
2023-04-18T06:21:07.762Z,49.54
2023-04-18T06:22:10.868Z,49.33
2023-04-18T06:23:13.557Z,49.47
2023-04-18T06:24:15.693Z,49.21
2023-04-18T06:25:18.835Z,49.42
2023-04-18T06:26:20.881Z,49.15
2023-04-18T06:27:31.116Z,48.84
2023-04-18T06:28:34.561Z,49.24
2023-04-18T06:29:38.078Z,49.55
2023-04-18T06:30:41.970Z,49.32
2023-04-18T06:31:46.109Z,49.30
2023-04-18T06:32:48.988Z,49.37
2023-04-18T06:33:52.052Z,49.14
2023-04-18T06:34:53.749Z,49.01
2023-04-18T06:35:56.552Z,49.13
2023-04-18T06:36:59.285Z,49.10
2023-04-18T06:38:03.411Z,48.84
2023-04-18T06:39:05.134Z,48.71
2023-04-18T06:40:09.181Z,48.67
2023-04-18T06:41:11.863Z,48.42
2023-04-18T06:42:13.581Z,48.59
2023-04-18T06:43:16.247Z,48.44
2023-04-18T06:44:17.968Z,48.46
2023-04-18T06:45:20.726Z,48.51
2023-04-18T06:46:23.467Z,48.23
2023-04-18T06:47:25.576Z,48.45
2023-04-18T06:48:28.315Z,48.48
2023-04-18T06:49:31.012Z,48.74
2023-04-18T06:50:32.681Z,48.64
2023-04-18T06:51:35.341Z,48.51
2023-04-18T06:52:40.657Z,48.30
2023-04-18T06:53:45.954Z,48.39
2023-04-18T06:54:48.659Z,48.55
2023-04-18T06:55:50.471Z,48.43
2023-04-18T06:56:53.809Z,48.22
2023-04-18T06:57:56.673Z,47.99
2023-04-18T06:58:59.318Z,48.26
2023-04-18T07:00:01.086Z,48.29
2023-04-18T07:01:03.901Z,47.96
2023-04-18T07:02:06.676Z,48.36
2023-04-18T07:03:13.302Z,48.50
2023-04-18T07:04:16.620Z,48.15
2023-04-18T07:05:19.625Z,48.28
2023-04-18T07:06:22.334Z,48.49
2023-04-18T07:07:26.359Z,48.11
2023-04-18T07:08:28.033Z,48.23
2023-04-18T07:09:32.099Z,48.26
2023-04-18T07:10:33.810Z,48.14
2023-04-18T07:11:36.478Z,47.77
2023-04-18T07:12:39.273Z,47.81
2023-04-18T07:13:41.056Z,47.79
2023-04-18T07:14:43.742Z,47.91
2023-04-18T07:15:46.472Z,47.97
2023-04-18T07:16:48.207Z,47.52
2023-04-18T07:17:51.055Z,47.90
2023-04-18T07:18:52.836Z,47.67
2023-04-18T07:19:55.566Z,47.68
2023-04-18T07:20:57.274Z,47.87
2023-04-18T07:21:59.958Z,48.08
2023-04-18T07:23:02.796Z,47.48
2023-04-18T07:24:05.909Z,47.63
2023-04-18T07:25:10.573Z,47.66
2023-04-18T07:26:13.727Z,47.46
2023-04-18T07:27:16.498Z,47.34
2023-04-18T07:28:19.243Z,47.31
2023-04-18T07:29:21.993Z,47.52
2023-04-18T07:30:23.881Z,47.57
2023-04-18T07:31:28.701Z,46.96
2023-04-18T07:32:31.710Z,47.30
2023-04-18T07:33:35.060Z,46.57
2023-04-18T07:34:37.469Z,47.06
2023-04-18T07:35:40.567Z,47.03
2023-04-18T07:36:42.448Z,46.49
2023-04-18T07:37:45.428Z,46.85
2023-04-18T07:38:48.255Z,46.49
2023-04-18T07:39:52.824Z,46.25
2023-04-18T07:40:58.128Z,46.28
2023-04-18T07:42:00.905Z,46.46
2023-04-18T07:43:02.628Z,46.69
2023-04-18T07:44:05.511Z,46.32
2023-04-18T07:45:07.852Z,46.52
2023-04-18T07:46:10.568Z,46.53
2023-04-18T07:47:13.265Z,46.49
2023-04-18T07:48:16.836Z,46.43
2023-04-18T07:49:19.562Z,46.81
2023-04-18T07:50:21.424Z,46.44
2023-04-18T07:51:25.395Z,46.74
2023-04-18T07:52:27.210Z,46.51
2023-04-18T07:53:29.850Z,46.98
2023-04-18T07:54:32.597Z,46.81
2023-04-18T07:55:35.432Z,46.92
2023-04-18T07:56:38.488Z,46.48
2023-04-18T07:57:44.846Z,46.83
2023-04-18T07:58:48.561Z,46.50
2023-04-18T07:59:53.773Z,46.65
2023-04-18T08:00:55.606Z,46.91
2023-04-18T08:01:58.367Z,46.38
2023-04-18T08:03:00.210Z,46.77
2023-04-18T08:04:03.154Z,46.75
2023-04-18T08:05:06.017Z,46.75
2023-04-18T08:06:09.141Z,46.74
2023-04-18T08:07:11.026Z,46.13
2023-04-18T08:08:13.853Z,46.52
2023-04-18T08:09:16.710Z,46.64
2023-04-18T08:10:20.889Z,46.34
2023-04-18T08:11:24.668Z,46.36
2023-04-18T08:12:27.846Z,46.55
2023-04-18T08:13:30.517Z,46.44
2023-04-18T08:14:32.341Z,46.58
2023-04-18T08:15:35.127Z,46.56
2023-04-18T08:16:37.009Z,46.12
2023-04-18T08:17:39.896Z,46.33
2023-04-18T08:18:42.707Z,46.21
2023-04-18T08:19:46.103Z,46.01
2023-04-18T08:20:47.954Z,46.11
2023-04-18T08:21:51.812Z,45.95
2023-04-18T08:23:05.583Z,46.04
2023-04-18T08:24:09.526Z,45.85
2023-04-18T08:25:11.467Z,45.80
2023-04-18T08:26:14.266Z,46.25
2023-04-18T08:27:15.945Z,46.31
2023-04-18T08:28:20.014Z,46.20
2023-04-18T08:29:24.978Z,45.85
2023-04-18T08:30:26.858Z,46.03
2023-04-18T08:31:31.515Z,45.96
2023-04-18T08:32:33.390Z,45.92
2023-04-18T08:33:36.118Z,45.68
2023-04-18T08:34:39.154Z,45.91
2023-04-18T08:35:41.882Z,45.97
2023-04-18T08:36:44.564Z,45.63
2023-04-18T08:37:46.291Z,45.54
2023-04-18T08:38:49.033Z,45.52
2023-04-18T08:39:50.827Z,45.18
2023-04-18T08:40:53.471Z,45.24
2023-04-18T08:41:59.453Z,44.93
2023-04-18T08:43:04.839Z,45.05
2023-04-18T08:44:08.227Z,45.26
2023-04-18T08:45:13.858Z,45.22
2023-04-18T08:46:15.830Z,44.97
2023-04-18T08:47:19.274Z,44.99
2023-04-18T08:48:23.136Z,44.32
2023-04-18T08:49:25.115Z,44.59
2023-04-18T08:50:28.019Z,44.55
2023-04-18T08:51:29.918Z,44.44
2023-04-18T08:52:34.162Z,44.40
2023-04-18T08:53:36.973Z,44.40
2023-04-18T08:54:41.955Z,43.94
2023-04-18T08:55:46.862Z,43.77
2023-04-18T08:57:03.771Z,43.58
2023-04-18T08:58:06.970Z,43.67
2023-04-18T08:59:11.586Z,43.52
2023-04-18T09:00:15.811Z,43.57
2023-04-18T09:01:17.752Z,43.38
2023-04-18T09:02:22.008Z,43.24
2023-04-18T09:03:41.370Z,42.93
2023-04-18T09:04:45.182Z,42.71
2023-04-18T09:06:08.315Z,42.69
2023-04-18T09:07:12.137Z,42.26
2023-04-18T09:08:25.051Z,42.09
2023-04-18T09:09:27.594Z,41.88
2023-04-18T09:10:32.615Z,41.84
2023-04-18T09:11:35.685Z,41.79
2023-04-18T09:12:42.564Z,41.64
2023-04-18T09:13:47.232Z,41.34
2023-04-18T09:14:52.351Z,41.09
2023-04-18T09:15:55.218Z,40.78
2023-04-18T09:16:57.997Z,40.58
2023-04-18T09:18:02.931Z,40.11
2023-04-18T09:19:10.487Z,39.58
2023-04-18T09:20:15.708Z,39.56
2023-04-18T09:21:18.712Z,39.41
2023-04-18T09:22:21.983Z,39.40
2023-04-18T09:23:26.015Z,39.75
2023-04-18T09:24:28.972Z,39.72
2023-04-18T09:25:34.832Z,39.71
2023-04-18T09:26:37.054Z,39.35
2023-04-18T09:27:39.859Z,39.28
2023-04-18T09:28:43.234Z,39.24
2023-04-18T09:29:47.087Z,39.14
2023-04-18T09:30:52.551Z,39.17
2023-04-18T09:31:55.998Z,38.98
2023-04-18T09:33:00.099Z,38.97
2023-04-18T09:34:05.065Z,38.63
2023-04-18T09:35:09.435Z,38.70
2023-04-18T09:36:19.992Z,38.56
2023-04-18T09:37:22.702Z,38.42
2023-04-18T09:38:41.077Z,38.55
2023-04-18T09:39:44.230Z,38.21
2023-04-18T09:40:47.040Z,38.33
2023-04-18T09:41:58.504Z,38.31
2023-04-18T09:43:04.623Z,37.97
2023-04-18T09:44:14.389Z,37.81
2023-04-18T09:45:17.536Z,38.07
2023-04-18T09:46:22.468Z,37.91
2023-04-18T09:47:25.235Z,38.35
2023-04-18T09:48:28.240Z,38.18
2023-04-18T09:49:29.917Z,38.04
2023-04-18T09:50:33.707Z,38.01
2023-04-18T09:51:35.705Z,38.08
2023-04-18T09:52:39.766Z,38.05
2023-04-18T09:53:44.616Z,38.26
2023-04-18T09:54:48.219Z,38.21
2023-04-18T09:55:54.944Z,38.23
2023-04-18T09:56:59.594Z,38.36
2023-04-18T09:58:07.325Z,38.57
2023-04-18T09:59:10.064Z,38.56
2023-04-18T10:00:20.170Z,38.88
2023-04-18T10:01:26.946Z,39.04
2023-04-18T10:02:35.127Z,38.93
2023-04-18T10:03:42.300Z,38.97
2023-04-18T10:04:48.040Z,38.79
2023-04-18T10:05:51.217Z,38.88
2023-04-18T10:06:55.228Z,38.67
2023-04-18T10:07:58.527Z,38.55
2023-04-18T10:09:00.591Z,38.12
2023-04-18T10:10:03.606Z,38.02
2023-04-18T10:11:05.766Z,38.01
2023-04-18T10:12:09.131Z,37.50
2023-04-18T10:13:11.934Z,37.28
2023-04-18T10:14:16.613Z,36.99
2023-04-18T10:15:21.650Z,36.79
2023-04-18T10:16:26.708Z,36.53
2023-04-18T10:17:29.790Z,36.69
2023-04-18T10:18:32.639Z,36.71
2023-04-18T10:19:34.590Z,36.40
2023-04-18T10:20:37.351Z,36.27
2023-04-18T10:21:39.321Z,36.11
2023-04-18T10:22:42.074Z,35.26
2023-04-18T10:23:45.860Z,34.83
2023-04-18T10:25:55.875Z,34.73
2023-04-18T10:26:58.166Z,34.71
2023-04-18T10:28:01.851Z,34.57
2023-04-18T10:29:04.806Z,34.89
2023-04-18T10:30:09.103Z,34.53
2023-04-18T10:31:12.003Z,34.27
2023-04-18T10:32:15.325Z,34.18
2023-04-18T10:33:31.109Z,34.58
2023-04-18T10:34:38.006Z,33.85
2023-04-18T10:35:56.475Z,33.69
2023-04-18T10:37:06.128Z,34.06
2023-04-18T10:38:16.684Z,33.90
2023-04-18T10:39:25.543Z,33.68
2023-04-18T10:40:32.857Z,33.38
2023-04-18T10:41:38.196Z,33.21
2023-04-18T10:42:57.967Z,32.97
2023-04-18T10:44:15.822Z,32.75
2023-04-18T10:45:18.627Z,32.49
2023-04-18T10:46:31.899Z,32.53
2023-04-18T10:47:36.914Z,32.59
2023-04-18T10:48:39.296Z,32.33
2023-04-18T10:49:54.548Z,32.46
2023-04-18T10:51:14.360Z,32.31
2023-04-18T10:52:16.218Z,32.36
2023-04-18T10:53:18.951Z,32.79
2023-04-18T10:54:22.987Z,31.79
2023-04-18T10:55:27.520Z,31.63
2023-04-18T10:56:29.392Z,31.48
2023-04-18T10:57:39.755Z,31.76
2023-04-18T10:58:42.910Z,31.01
2023-04-18T10:59:48.623Z,31.51
2023-04-18T11:00:52.773Z,31.09
2023-04-18T11:01:56.963Z,31.27
2023-04-18T11:03:01.224Z,31.58
2023-04-18T11:04:11.703Z,31.69
2023-04-18T11:05:20.371Z,31.46
2023-04-18T11:06:23.867Z,31.80
2023-04-18T11:07:33.419Z,31.36
2023-04-18T11:08:36.332Z,31.69
2023-04-18T11:09:38.585Z,30.91
2023-04-18T11:10:41.315Z,31.11
2023-04-18T11:11:44.098Z,30.88
2023-04-18T11:12:47.271Z,31.60
2023-04-18T11:13:56.549Z,31.66
2023-04-18T11:14:59.831Z,31.53
2023-04-18T11:16:02.651Z,31.64
2023-04-18T11:17:17.630Z,31.88
2023-04-18T11:18:21.691Z,31.26
2023-04-18T11:19:23.577Z,31.67
2023-04-18T11:20:26.809Z,31.48
2023-04-18T11:21:30.706Z,31.70
2023-04-18T11:22:33.682Z,31.56
2023-04-18T11:23:36.530Z,31.89
2023-04-18T11:24:38.265Z,31.30
2023-04-18T11:25:41.221Z,31.58
2023-04-18T11:26:44.429Z,31.06
2023-04-18T11:27:49.030Z,31.19
2023-04-18T11:28:52.177Z,31.55
2023-04-18T11:29:55.402Z,31.61
2023-04-18T11:30:59.187Z,31.19
2023-04-18T11:32:00.893Z,31.09
2023-04-18T11:33:06.441Z,30.83
2023-04-18T11:34:10.926Z,30.80
2023-04-18T11:35:15.490Z,30.33
2023-04-18T11:36:17.294Z,30.34
2023-04-18T11:37:20.241Z,30.42
2023-04-18T11:38:29.481Z,30.29
2023-04-18T11:39:34.228Z,30.57
2023-04-18T11:40:37.332Z,30.46
2023-04-18T11:41:41.749Z,30.70
2023-04-18T11:42:44.953Z,30.32
2023-04-18T11:43:46.739Z,30.35
2023-04-18T11:44:49.598Z,30.60
2023-04-18T11:45:53.981Z,30.04
2023-04-18T11:46:55.762Z,30.40
2023-04-18T11:47:59.830Z,30.35
2023-04-18T11:49:01.998Z,30.23
2023-04-18T11:50:07.952Z,30.32
2023-04-18T11:51:35.725Z,30.31
2023-04-18T11:52:42.127Z,30.27
2023-04-18T11:53:44.961Z,29.97
2023-04-18T11:54:46.635Z,30.81
2023-04-18T11:55:55.854Z,30.38
2023-04-18T11:56:57.718Z,30.51
2023-04-18T11:58:01.580Z,30.61
2023-04-18T11:59:08.811Z,30.29
2023-04-18T12:00:13.350Z,30.80
2023-04-18T12:01:19.891Z,30.92
2023-04-18T12:02:23.867Z,30.67
2023-04-18T12:03:26.102Z,31.01
2023-04-18T12:04:29.480Z,31.02
2023-04-18T12:05:35.875Z,30.80
2023-04-18T12:06:47.183Z,31.35
2023-04-18T12:07:52.281Z,31.45
2023-04-18T12:08:58.674Z,31.13
2023-04-18T12:10:01.521Z,30.80
2023-04-18T12:11:04.267Z,30.76
2023-04-18T12:12:06.357Z,30.09
2023-04-18T12:13:09.690Z,30.63
2023-04-18T12:14:20.014Z,30.57
2023-04-18T12:15:26.964Z,30.07
2023-04-18T12:16:29.871Z,29.92
2023-04-18T12:17:31.837Z,30.35
2023-04-18T12:18:34.539Z,30.34
2023-04-18T12:19:36.250Z,30.53
2023-04-18T12:20:46.357Z,30.64
2023-04-18T12:21:56.753Z,30.25
2023-04-18T12:22:59.497Z,30.04
2023-04-18T12:24:13.364Z,30.62
2023-04-18T12:25:24.202Z,30.41
2023-04-18T12:26:27.826Z,30.68
2023-04-18T12:27:47.084Z,30.75
2023-04-18T12:28:51.510Z,30.72
2023-04-18T12:29:53.239Z,30.92
2023-04-18T12:30:56.176Z,30.43
2023-04-18T12:31:58.963Z,30.78
2023-04-18T12:33:02.860Z,30.73
2023-04-18T12:34:04.646Z,30.89
2023-04-18T12:35:08.456Z,31.04
2023-04-18T12:36:12.739Z,30.75
2023-04-18T12:37:14.577Z,30.88
2023-04-18T12:38:20.985Z,30.65
2023-04-18T12:39:22.702Z,31.32
2023-04-18T12:40:26.538Z,30.96
2023-04-18T12:41:29.514Z,30.95
2023-04-18T12:42:31.168Z,31.07
2023-04-18T12:43:33.844Z,31.30
2023-04-18T12:44:36.527Z,31.34
2023-04-18T12:45:39.189Z,31.40
2023-04-18T12:46:42.078Z,31.36
2023-04-18T12:47:45.799Z,31.66
2023-04-18T12:48:48.620Z,31.59
2023-04-18T12:49:50.354Z,31.70
2023-04-18T12:50:53.111Z,31.38
2023-04-18T12:51:56.157Z,31.69
2023-04-18T12:53:00.161Z,31.79
2023-04-18T12:54:01.988Z,31.76
2023-04-18T12:55:04.982Z,31.86
2023-04-18T12:56:07.950Z,31.71
2023-04-18T12:57:09.825Z,32.02
2023-04-18T12:58:15.108Z,32.02
2023-04-18T12:59:17.966Z,31.72
2023-04-18T13:00:19.890Z,31.83
2023-04-18T13:01:22.598Z,31.67
2023-04-18T13:02:24.480Z,31.85
2023-04-18T13:03:27.460Z,32.03
2023-04-18T13:04:29.456Z,31.36
2023-04-18T13:05:34.061Z,31.28
2023-04-18T13:06:37.631Z,31.54
2023-04-18T13:07:42.747Z,31.15
2023-04-18T13:08:47.428Z,30.95
2023-04-18T13:09:49.135Z,31.21
2023-04-18T13:10:52.104Z,30.92
2023-04-18T13:11:53.824Z,31.25
2023-04-18T13:12:56.488Z,30.93
2023-04-18T13:13:59.389Z,30.83
2023-04-18T13:15:02.197Z,30.94
2023-04-18T13:16:05.547Z,30.82
2023-04-18T13:17:07.439Z,30.68
2023-04-18T13:18:10.201Z,30.89
2023-04-18T13:19:12.130Z,30.91
2023-04-18T13:20:15.474Z,30.77
2023-04-18T13:21:17.485Z,30.48
2023-04-18T13:22:21.083Z,30.47
2023-04-18T13:23:25.106Z,30.81
2023-04-18T13:24:26.842Z,30.68
2023-04-18T13:25:29.630Z,30.56
2023-04-18T13:26:35.548Z,31.03
2023-04-18T13:27:40.176Z,30.68
2023-04-18T13:28:43.268Z,30.73
2023-04-18T13:29:46.758Z,30.67
2023-04-18T13:30:49.524Z,30.72
2023-04-18T13:31:51.286Z,30.21
2023-04-18T13:32:55.011Z,30.42
2023-04-18T13:33:56.902Z,30.52
2023-04-18T13:35:00.190Z,30.04
2023-04-18T13:36:03.190Z,30.20
2023-04-18T13:37:04.892Z,30.02
2023-04-18T13:38:07.662Z,30.24
2023-04-18T13:39:10.798Z,30.45